KPZQ METAR Reports


Rogers City, Presque Isle County Airport, MI, United States (KPZQ) 45-24-25N 083-48-46W
Jun 01, 2020 - 08:35 AM EDT / 2020.06.01 1235 UTC
Wind: from the WSW (240 degrees) at 14 MPH (12 KT):0
Visibility: 10 mile(s):0
Sky conditions: clear
Temperature: 58.3 F (14.6 C)
Dew Point: 40.8 F (4.9 C)
Relative Humidity: 52%
Pressure (altimeter): 30.19 in. Hg (1022 hPa)
ob: KPZQ 011235Z AUTO 24012KT 10SM CLR 15/05 A3019 RMK AO2 T01460049
cycle: 12

 

Rogers City METAR Meteogram

Weather Chart

Nearby METAR Reports

KPZQ - Rogers City, Michigan, USA
Distance from station: SSW 1mi, 2km
Updated: Mon, 01-Jun-2020 8:35am EDT
Clear
Clear
 Wind from WSW
Wind: WSW 14 mph , 22 km/h
Temperature: 59°F , 15°C
Dew Point: 41°F , 5°C
Humidity: 51%
Barometer: 30.19 inHg , 1022.4 hPa
Clouds: Clear
Visibility: 10 miles , 16 km
2020/06/01 12:35 KPZQ 011235Z AUTO 24012KT 10SM CLR 15/05 A3019 RMK AO2 T01460049
KAPN - Alpena, Michigan, USA
Distance from station: SSE 27mi, 43km
Updated: Mon, 01-Jun-2020 7:54am EDT
NOT Current
Clear
Clear
 Wind from SW
Wind: SW 5 mph , 7 km/h
Temperature: 52°F , 11°C
Dew Point: 39°F , 4°C
Humidity: 62%
Barometer: 30.21 inHg , 1023 hPa
Clouds: Clear
Visibility: 10 miles , 16 km
2020/06/01 11:54 KAPN 011154Z AUTO 22004KT 10SM CLR 11/04 A3021 RMK AO2 SLP230 T01110044 10111 20028 58008
 
KSLH - Cheboygan, Michigan, USA
Distance from station: WNW 38mi, 61km
Updated: Mon, 01-Jun-2020 8:35am EDT
Clear
Clear
 Wind from SW
Wind: SW 5 mph , 7 km/h
Temperature: 54°F , 12°C
Dew Point: 41°F , 5°C
Humidity: 63%
Barometer: 30.16 inHg , 1021.3 hPa
Clouds: Clear
Visibility: 10 miles , 16 km
2020/06/01 12:35 KSLH 011235Z AUTO 22004KT 10SM CLR 12/05 A3016 RMK AO2 T01210054
KDRM - Drummond Is, Michigan, USA
Distance from station: N 40mi, 65km
Updated: Mon, 01-Jun-2020 8:36am EDT
Clear
Clear
 Wind from WSW
Wind: WSW 8 mph , 13 km/h
Temperature: 55°F , 13°C
Dew Point: 41°F , 5°C
Humidity: 59%
Barometer: 30.16 inHg , 1021.3 hPa
Clouds: Clear
Visibility: 10 miles , 16 km
2020/06/01 12:36 KDRM 011236Z AUTO 25007KT 10SM CLR 13/05 A3016 RMK AO2 T01270047
 
KPLN - Pellston, Michigan, USA
Distance from station: WNW 49mi, 79km
Updated: Mon, 01-Jun-2020 7:54am EDT
NOT Current
Clear
Clear
 Wind from SW
Wind: SW 6 mph , 9 km/h
Temperature: 54°F , 12°C
Dew Point: 39°F , 4°C
Humidity: 58%
Barometer: 30.20 inHg , 1022.7 hPa
Clouds: Clear
Visibility: 10 miles , 16 km
2020/06/01 11:54 KPLN 011154Z AUTO 23005KT 10SM CLR 12/04 A3020 RMK AO2 SLP228 T01220039 10122 20039 55003
KMCD - Mackinac Island, Michigan, USA
Distance from station: NW 50mi, 80km
Updated: Mon, 01-Jun-2020 8:36am EDT
Clear
Clear
 Wind from WSW
Wind: WSW 12 mph , 19 km/h, Gust: 21 mph , 33 km/h
Temperature: 52°F , 11°C
Dew Point: 41°F , 5°C
Humidity: 67%
Barometer: 30.17 inHg , 1021.7 hPa
Clouds: Clear
Visibility: 10 miles , 16 km
2020/06/01 12:36 KMCD 011236Z AUTO 24010G18KT 10SM CLR 11/05 A3017 RMK AO2 T01090051